createdAt,value
2022-12-18T00:01:37.163Z,44.47
2022-12-18T00:04:05.923Z,44.30
2022-12-18T00:06:33.679Z,33.72
2022-12-18T00:09:01.294Z,34.97
2022-12-18T00:11:30.070Z,35.47
2022-12-18T00:14:01.703Z,42.28
2022-12-18T00:16:31.219Z,39.60
2022-12-18T00:19:00.674Z,33.78
2022-12-18T00:21:28.876Z,37.72
2022-12-18T00:23:55.606Z,39.87
2022-12-18T00:26:28.162Z,37.15
2022-12-18T00:28:56.518Z,40.03
2022-12-18T00:31:24.854Z,38.20
2022-12-18T00:33:55.282Z,41.22
2022-12-18T00:36:28.058Z,40.30
2022-12-18T00:38:56.372Z,42.92
2022-12-18T00:50:51.425Z,41.43
2022-12-18T00:53:18.442Z,49.45
2022-12-18T00:55:46.653Z,41.28
2022-12-18T00:58:15.008Z,41.67
2022-12-18T01:00:41.882Z,39.80
2022-12-18T01:03:08.513Z,46.40
2022-12-18T01:05:34.957Z,35.97
2022-12-18T01:08:01.417Z,39.22
2022-12-18T01:10:27.893Z,37.00
2022-12-18T01:12:54.369Z,38.10
2022-12-18T01:15:21.476Z,37.47
2022-12-18T01:17:47.998Z,38.92
2022-12-18T01:20:14.907Z,41.33
2022-12-18T01:22:41.575Z,39.10
2022-12-18T01:25:09.693Z,39.65
2022-12-18T01:27:36.109Z,37.87
2022-12-18T01:30:02.827Z,40.45
2022-12-18T01:32:31.687Z,37.92
2022-12-18T01:34:58.285Z,34.75
2022-12-18T01:37:24.849Z,39.80
2022-12-18T01:39:53.339Z,38.13
2022-12-18T01:42:19.834Z,33.97
2022-12-18T01:45:07.909Z,43.28
2022-12-18T01:47:39.703Z,38.97
2022-12-18T01:50:22.625Z,44.33
2022-12-18T01:53:01.021Z,34.27
2022-12-18T01:55:31.740Z,40.88
2022-12-18T01:58:00.332Z,39.50
2022-12-18T02:00:27.862Z,42.35
2022-12-18T02:02:55.149Z,37.10
2022-12-18T02:05:39.901Z,39.93
2022-12-18T02:08:34.743Z,34.63
2022-12-18T02:11:11.655Z,37.22
2022-12-18T02:13:53.235Z,37.22
2022-12-18T02:17:06.377Z,37.03
2022-12-18T02:19:57.315Z,37.73
2022-12-18T02:22:42.918Z,48.10
2022-12-18T02:25:34.475Z,35.20
2022-12-18T02:28:06.808Z,39.63
2022-12-18T02:30:37.124Z,40.90
2022-12-18T02:33:07.866Z,34.57
2022-12-18T02:35:36.239Z,33.33
2022-12-18T02:38:05.152Z,39.72
2022-12-18T02:40:32.796Z,43.15
2022-12-18T02:43:14.069Z,47.35
2022-12-18T02:45:57.581Z,38.70
2022-12-18T02:48:30.697Z,35.72
2022-12-18T02:51:24.773Z,33.03
2022-12-18T02:54:11.703Z,36.03
2022-12-18T02:56:51.484Z,32.58
2022-12-18T02:59:32.817Z,38.17
2022-12-18T03:02:07.489Z,37.60
2022-12-18T03:05:01.928Z,35.72
2022-12-18T03:07:39.054Z,40.35
2022-12-18T03:10:09.703Z,34.88
2022-12-18T03:12:40.869Z,35.00
2022-12-18T03:15:21.646Z,37.42
2022-12-18T03:17:56.047Z,32.05
2022-12-18T03:20:26.602Z,35.80
2022-12-18T03:22:59.945Z,36.40
2022-12-18T03:25:28.744Z,34.23
2022-12-18T03:27:58.772Z,39.10
2022-12-18T03:30:29.551Z,31.35
2022-12-18T03:33:30.130Z,33.00
2022-12-18T03:35:57.126Z,30.83
2022-12-18T03:38:24.115Z,40.57
2022-12-18T03:41:14.092Z,30.92
2022-12-18T03:44:18.158Z,39.47
2022-12-18T03:46:50.519Z,37.13
2022-12-18T03:49:35.502Z,36.80
2022-12-18T03:52:15.336Z,28.93
2022-12-18T03:54:45.927Z,37.08
2022-12-18T03:57:25.792Z,32.72
2022-12-18T03:59:57.897Z,29.77
2022-12-18T04:02:25.918Z,29.77
2022-12-18T04:05:00.584Z,24.33
2022-12-18T04:07:28.038Z,23.15
2022-12-18T04:09:57.441Z,26.30
2022-12-18T04:12:27.459Z,29.15
2022-12-18T04:14:53.964Z,23.98
2022-12-18T04:17:21.007Z,29.50
2022-12-18T04:19:47.658Z,25.80
2022-12-18T04:22:14.205Z,23.15
2022-12-18T04:24:40.720Z,30.35
2022-12-18T04:27:07.333Z,25.13
2022-12-18T04:29:33.989Z,19.70
2022-12-18T04:32:00.607Z,25.75
2022-12-18T04:34:27.734Z,22.55
2022-12-18T04:36:54.299Z,21.98
2022-12-18T04:39:20.878Z,20.15
2022-12-18T04:41:47.435Z,25.43
2022-12-18T04:44:14.534Z,16.90
2022-12-18T04:46:41.236Z,22.15
2022-12-18T04:49:07.691Z,19.63
2022-12-18T04:51:34.264Z,21.45
2022-12-18T04:54:00.858Z,26.33
2022-12-18T04:56:27.383Z,15.38
2022-12-18T04:58:53.861Z,20.58
2022-12-18T05:01:20.751Z,19.08
2022-12-18T05:03:47.494Z,18.40
2022-12-18T05:06:14.043Z,14.67
2022-12-18T05:08:40.687Z,18.00
2022-12-18T05:11:14.977Z,16.58
2022-12-18T05:13:43.625Z,18.70
2022-12-18T05:16:10.304Z,29.75
2022-12-18T05:18:37.178Z,16.43
2022-12-18T05:21:04.547Z,16.48
2022-12-18T05:23:31.135Z,17.20
2022-12-18T05:25:59.699Z,23.30
2022-12-18T05:28:29.766Z,14.23
2022-12-18T05:30:59.646Z,20.63
2022-12-18T05:33:29.599Z,20.13
2022-12-18T05:35:58.838Z,15.82
2022-12-18T05:38:27.061Z,13.15
2022-12-18T05:40:54.441Z,15.05
2022-12-18T05:43:25.342Z,17.87
2022-12-18T05:45:52.809Z,15.82
2022-12-18T05:48:19.905Z,19.23
2022-12-18T05:50:48.442Z,14.02
2022-12-18T05:53:17.241Z,19.05
2022-12-18T05:55:44.861Z,17.77
2022-12-18T05:58:12.776Z,13.18
2022-12-18T06:00:42.520Z,19.58
2022-12-18T06:03:11.008Z,13.20
2022-12-18T06:05:42.579Z,18.05
2022-12-18T06:08:09.968Z,16.03
2022-12-18T06:10:36.538Z,14.35
2022-12-18T06:13:03.128Z,16.05
2022-12-18T06:15:29.590Z,12.65
2022-12-18T06:17:56.009Z,18.30
2022-12-18T06:20:22.986Z,18.13
2022-12-18T06:22:49.525Z,17.60
2022-12-18T06:25:16.446Z,19.92
2022-12-18T06:27:43.036Z,14.88
2022-12-18T06:30:11.450Z,15.88
2022-12-18T06:32:38.020Z,18.23
2022-12-18T06:35:04.948Z,22.10
2022-12-18T06:37:32.663Z,20.25
2022-12-18T06:39:59.237Z,14.20
2022-12-18T06:42:26.122Z,14.55
2022-12-18T06:44:52.702Z,12.47
2022-12-18T06:47:19.532Z,13.30
2022-12-18T06:49:45.960Z,15.48
2022-12-18T06:52:12.511Z,14.40
2022-12-18T06:54:38.971Z,14.00
2022-12-18T06:57:05.354Z,19.63
2022-12-18T06:59:32.053Z,15.90
2022-12-18T07:01:58.656Z,13.38
2022-12-18T07:04:30.693Z,18.75
2022-12-18T07:06:57.243Z,13.73
2022-12-18T07:09:24.171Z,15.63
2022-12-18T07:11:51.076Z,15.25
2022-12-18T07:14:17.520Z,15.73
2022-12-18T07:16:44.096Z,14.18
2022-12-18T07:19:10.695Z,13.00
2022-12-18T07:21:37.274Z,20.63
2022-12-18T07:24:04.598Z,22.15
2022-12-18T07:26:31.526Z,13.63
2022-12-18T07:28:58.851Z,17.33
2022-12-18T07:31:26.802Z,19.95
2022-12-18T07:33:54.573Z,14.70
2022-12-18T07:36:22.130Z,10.68
2022-12-18T07:38:49.932Z,15.48
2022-12-18T07:41:17.300Z,17.02
2022-12-18T07:43:44.421Z,13.02
2022-12-18T07:46:14.676Z,17.67
2022-12-18T07:48:42.993Z,13.32
2022-12-18T07:51:11.300Z,16.63
2022-12-18T07:53:38.249Z,14.23
2022-12-18T07:58:55.165Z,14.17
2022-12-18T08:01:21.767Z,19.98
2022-12-18T08:03:48.487Z,16.75
2022-12-18T08:06:16.386Z,13.80
2022-12-18T08:08:43.227Z,14.60
2022-12-18T08:11:09.782Z,15.67
2022-12-18T08:13:36.441Z,37.90
2022-12-18T08:16:08.280Z,22.40
2022-12-18T08:18:37.741Z,21.13
2022-12-18T08:21:23.737Z,11.18
2022-12-18T08:23:51.902Z,15.80
2022-12-18T08:26:19.172Z,12.85
2022-12-18T08:28:47.606Z,14.00
2022-12-18T08:31:14.822Z,18.38
2022-12-18T08:33:43.819Z,15.07
2022-12-18T08:36:13.678Z,12.63
2022-12-18T08:38:40.314Z,12.57
2022-12-18T08:41:11.178Z,8.73
2022-12-18T08:43:57.743Z,13.88
2022-12-18T08:46:27.970Z,9.48
2022-12-18T08:48:56.847Z,13.07
2022-12-18T08:51:26.375Z,10.23
2022-12-18T08:53:52.974Z,14.35
2022-12-18T08:56:20.715Z,11.32
2022-12-18T08:58:47.593Z,11.35
2022-12-18T09:01:16.219Z,12.03
2022-12-18T09:03:44.217Z,13.25
2022-12-18T09:06:16.749Z,13.40
2022-12-18T09:08:45.083Z,10.68
2022-12-18T09:11:24.158Z,14.90
2022-12-18T09:13:51.618Z,11.00
2022-12-18T09:16:20.535Z,12.10
2022-12-18T09:18:47.728Z,13.32
2022-12-18T09:21:17.349Z,16.85
2022-12-18T09:23:45.641Z,14.15
2022-12-18T09:26:12.246Z,13.50
2022-12-18T09:28:39.313Z,10.07
2022-12-18T09:31:11.691Z,17.83
2022-12-18T09:33:40.052Z,15.32
2022-12-18T09:36:11.278Z,14.98
2022-12-18T09:38:38.317Z,13.33
2022-12-18T09:41:36.030Z,14.98
2022-12-18T09:44:19.271Z,17.58
2022-12-18T09:46:55.257Z,11.30
2022-12-18T09:49:27.242Z,10.93
2022-12-18T09:52:02.004Z,9.13
2022-12-18T09:55:03.098Z,19.80
2022-12-18T09:57:33.382Z,10.75
2022-12-18T10:00:19.375Z,11.82
2022-12-18T10:02:49.360Z,13.05
2022-12-18T10:05:35.278Z,11.63
2022-12-18T10:08:40.801Z,11.43
2022-12-18T10:11:35.616Z,12.65
2022-12-18T10:14:07.097Z,12.32
2022-12-18T10:16:49.542Z,14.07
2022-12-18T10:19:34.540Z,9.37
2022-12-18T10:22:04.095Z,9.73
2022-12-18T10:24:35.731Z,12.63
2022-12-18T10:27:16.452Z,10.32
2022-12-18T10:29:47.178Z,9.48
2022-12-18T10:32:22.526Z,9.70
2022-12-18T10:34:56.672Z,9.20
2022-12-18T10:37:29.403Z,12.00
2022-12-18T10:40:18.469Z,11.85
2022-12-18T10:43:09.457Z,13.45
2022-12-18T10:45:36.289Z,12.43
2022-12-18T10:48:04.337Z,10.20
2022-12-18T10:51:09.061Z,10.57
2022-12-18T10:53:28.719Z,12.85
2022-12-18T10:56:01.664Z,10.50
2022-12-18T10:58:33.151Z,10.53
2022-12-18T11:01:16.834Z,12.65
2022-12-18T11:04:02.729Z,11.50
2022-12-18T11:06:30.251Z,12.18
2022-12-18T11:09:20.409Z,10.80
2022-12-18T11:11:53.360Z,9.60
2022-12-18T11:14:33.958Z,12.73
2022-12-18T11:20:04.288Z,10.90
2022-12-18T11:22:34.499Z,12.05
2022-12-18T11:28:27.833Z,12.02
2022-12-18T11:31:16.431Z,9.13
2022-12-18T11:34:31.257Z,9.68
2022-12-18T11:37:06.405Z,9.73
2022-12-18T11:39:39.562Z,10.90
2022-12-18T11:42:21.125Z,9.40
2022-12-18T11:44:59.460Z,9.60
2022-12-18T11:47:54.690Z,9.30
2022-12-18T11:50:56.725Z,10.68
2022-12-18T11:53:26.563Z,12.33
2022-12-18T11:56:27.589Z,7.05
2022-12-18T11:59:51.799Z,12.77
2022-12-18T12:03:00.932Z,10.05
2022-12-18T12:05:39.278Z,8.85
2022-12-18T12:08:50.199Z,9.83
2022-12-18T12:11:54.913Z,9.18
2022-12-18T12:14:39.551Z,13.88
2022-12-18T12:17:44.302Z,9.15
2022-12-18T12:20:33.579Z,7.72
2022-12-18T12:23:06.853Z,8.53
2022-12-18T12:25:54.805Z,12.55
2022-12-18T12:28:48.276Z,12.35
2022-12-18T12:31:38.109Z,12.57
2022-12-18T12:34:19.287Z,10.27
2022-12-18T12:37:07.441Z,12.73
2022-12-18T12:39:38.180Z,13.63
2022-12-18T12:42:31.043Z,10.55
2022-12-18T12:45:02.574Z,9.48
2022-12-18T12:47:33.827Z,9.93
2022-12-18T12:50:07.969Z,9.73
2022-12-18T12:52:40.769Z,8.52
2022-12-18T12:55:18.702Z,8.75
2022-12-18T12:58:12.777Z,11.93
2022-12-18T13:00:52.035Z,10.57
2022-12-18T13:03:27.992Z,12.57
2022-12-18T13:06:01.280Z,10.85
2022-12-18T13:08:33.340Z,10.07
2022-12-18T13:11:22.577Z,12.63
2022-12-18T13:13:57.322Z,17.88
2022-12-18T13:16:28.178Z,8.87
2022-12-18T13:18:59.737Z,10.38
2022-12-18T13:21:34.649Z,11.27
2022-12-18T13:24:36.702Z,11.93
2022-12-18T13:27:45.984Z,11.27
2022-12-18T13:30:47.618Z,9.70
2022-12-18T13:33:20.761Z,16.08
2022-12-18T13:35:48.390Z,12.32
2022-12-18T13:38:31.831Z,11.52
2022-12-18T13:41:03.500Z,12.70
2022-12-18T13:43:50.979Z,13.57
2022-12-18T13:46:30.042Z,13.57
2022-12-18T13:49:20.107Z,13.60
2022-12-18T13:51:56.293Z,14.32
2022-12-18T13:54:41.254Z,9.75
2022-12-18T13:57:26.204Z,11.57
2022-12-18T13:59:53.156Z,12.13
2022-12-18T14:02:29.672Z,14.15
2022-12-18T14:04:56.831Z,11.70
2022-12-18T14:07:27.092Z,12.50
2022-12-18T14:12:57.418Z,10.55
2022-12-18T14:15:27.025Z,11.18
2022-12-18T14:18:15.174Z,12.52
2022-12-18T14:20:49.227Z,12.05
2022-12-18T14:23:48.655Z,12.03
2022-12-18T14:26:29.999Z,11.13
2022-12-18T14:28:59.026Z,13.48
2022-12-18T14:31:28.029Z,11.52
2022-12-18T14:33:55.154Z,11.82
2022-12-18T14:36:24.875Z,14.87
2022-12-18T14:38:58.468Z,10.27
2022-12-18T14:41:26.328Z,13.10
2022-12-18T14:43:55.121Z,11.68
2022-12-18T14:46:37.838Z,12.38
2022-12-18T14:49:18.853Z,12.87
2022-12-18T14:51:51.846Z,12.90
2022-12-18T14:54:20.879Z,11.55
2022-12-18T14:56:51.862Z,13.98
2022-12-18T14:59:24.795Z,12.43
2022-12-18T15:02:05.981Z,13.50
2022-12-18T15:04:40.278Z,14.20
2022-12-18T15:07:18.490Z,14.75
2022-12-18T15:10:01.431Z,10.45
2022-12-18T15:12:36.983Z,11.32
2022-12-18T15:15:04.810Z,13.03
2022-12-18T15:17:31.924Z,11.38
2022-12-18T15:20:04.823Z,11.30
2022-12-18T15:22:35.638Z,14.98
2022-12-18T15:25:04.584Z,13.48
2022-12-18T15:27:38.805Z,12.07
2022-12-18T15:30:11.375Z,14.05
2022-12-18T15:32:39.271Z,14.07
2022-12-18T15:35:11.858Z,8.77
2022-12-18T15:37:39.910Z,14.75
2022-12-18T15:40:09.324Z,15.33
2022-12-18T15:42:54.425Z,11.57
2022-12-18T15:45:20.936Z,15.75
2022-12-18T15:47:49.910Z,17.33
2022-12-18T15:50:16.435Z,15.38
2022-12-18T15:52:46.675Z,18.50
2022-12-18T15:55:33.209Z,17.65
2022-12-18T15:57:59.597Z,16.60
2022-12-18T16:00:26.200Z,14.18
2022-12-18T16:02:53.575Z,13.40
2022-12-18T16:05:22.619Z,14.07
2022-12-18T16:07:49.063Z,17.27
2022-12-18T16:10:15.632Z,14.25
2022-12-18T16:12:42.807Z,12.95
2022-12-18T16:15:14.341Z,11.40
2022-12-18T16:17:41.542Z,12.30
2022-12-18T16:20:17.471Z,18.42
2022-12-18T16:22:46.888Z,19.00
2022-12-18T16:25:24.272Z,18.70
2022-12-18T16:27:51.795Z,14.13
2022-12-18T16:30:21.056Z,13.03
2022-12-18T16:32:47.796Z,12.32
2022-12-18T16:35:16.512Z,15.07
2022-12-18T16:37:43.674Z,17.65
2022-12-18T16:40:13.042Z,16.70
2022-12-18T16:42:40.976Z,13.23
2022-12-18T16:45:09.570Z,21.35
2022-12-18T16:47:36.289Z,20.30
2022-12-18T16:50:02.859Z,14.48
2022-12-18T16:52:30.273Z,21.85
2022-12-18T16:54:57.292Z,16.57
2022-12-18T16:57:25.429Z,15.65
2022-12-18T16:59:52.800Z,17.63
2022-12-18T17:02:25.664Z,17.17
2022-12-18T17:04:55.144Z,15.88
2022-12-18T17:07:21.752Z,16.40
2022-12-18T17:09:50.200Z,14.50
2022-12-18T17:12:17.545Z,16.42
2022-12-18T17:14:44.053Z,17.27
2022-12-18T17:17:25.891Z,15.75
2022-12-18T17:19:52.820Z,20.10
2022-12-18T17:22:20.398Z,16.95
2022-12-18T17:24:47.836Z,21.13
2022-12-18T17:27:14.923Z,16.98
2022-12-18T17:29:47.335Z,14.00
2022-12-18T17:32:15.188Z,13.07
2022-12-18T17:34:41.755Z,13.80
2022-12-18T17:37:08.560Z,19.08
2022-12-18T17:39:35.028Z,17.90
2022-12-18T17:42:01.506Z,17.55
2022-12-18T17:44:28.065Z,17.60
2022-12-18T17:46:54.555Z,16.55
2022-12-18T17:49:21.559Z,20.08
2022-12-18T17:51:49.042Z,16.73
2022-12-18T17:54:15.642Z,17.05
2022-12-18T17:56:42.193Z,21.73
2022-12-18T17:59:09.262Z,18.92
2022-12-18T18:01:42.400Z,17.33
2022-12-18T18:04:11.109Z,20.80
2022-12-18T18:06:39.255Z,18.60
2022-12-18T18:09:09.982Z,15.53
2022-12-18T18:12:01.839Z,18.05
2022-12-18T18:14:28.577Z,21.42
2022-12-18T18:16:55.344Z,18.90
2022-12-18T18:19:24.647Z,18.25
2022-12-18T18:21:53.215Z,18.07
2022-12-18T18:24:26.196Z,21.33
2022-12-18T18:26:53.323Z,15.98
2022-12-18T18:29:22.723Z,20.52
2022-12-18T18:31:50.060Z,16.83
2022-12-18T18:34:20.113Z,20.07
2022-12-18T18:36:46.822Z,20.98
2022-12-18T18:39:14.240Z,15.80
2022-12-18T18:41:41.011Z,16.05
2022-12-18T18:44:10.791Z,20.38
2022-12-18T18:46:37.636Z,19.67
2022-12-18T18:49:07.500Z,19.30
2022-12-18T18:51:35.208Z,18.42
2022-12-18T18:54:02.024Z,17.10
2022-12-18T18:59:15.695Z,16.20
2022-12-18T19:01:46.537Z,21.67
2022-12-18T19:04:13.095Z,21.08
2022-12-18T19:06:39.886Z,14.82
2022-12-18T19:09:07.357Z,18.90
2022-12-18T19:11:52.592Z,17.87
2022-12-18T19:14:19.241Z,16.58
2022-12-18T19:16:45.925Z,18.40
2022-12-18T19:19:13.380Z,18.67
2022-12-18T19:21:40.291Z,19.38
2022-12-18T19:24:07.239Z,22.00
2022-12-18T19:26:33.688Z,16.27
2022-12-18T19:29:05.571Z,13.63
2022-12-18T19:31:35.983Z,15.52
2022-12-18T19:34:06.798Z,18.38
2022-12-18T19:36:55.244Z,15.30
2022-12-18T19:39:34.117Z,17.15
2022-12-18T19:42:00.597Z,19.67
2022-12-18T19:44:27.242Z,18.27
2022-12-18T19:46:53.925Z,18.45
2022-12-18T19:49:20.614Z,20.83
2022-12-18T19:51:47.937Z,17.83
2022-12-18T19:54:17.818Z,15.25
2022-12-18T19:56:45.798Z,17.98
2022-12-18T19:59:13.366Z,16.10
2022-12-18T20:05:34.667Z,17.08
2022-12-18T20:09:19.325Z,19.50
2022-12-18T20:14:06.221Z,20.00
2022-12-18T20:16:55.112Z,20.65
2022-12-18T20:19:45.560Z,18.00
2022-12-18T20:28:56.435Z,18.80
2022-12-18T20:28:59.496Z,21.95
2022-12-18T20:31:55.138Z,21.50
2022-12-18T20:37:51.967Z,15.87
2022-12-18T21:02:05.694Z,19.58
2022-12-18T21:05:09.496Z,25.80
2022-12-18T21:07:48.971Z,23.58
2022-12-18T21:10:27.433Z,22.02
2022-12-18T21:19:37.940Z,23.33
2022-12-18T21:25:27.727Z,20.08
2022-12-18T21:28:31.087Z,19.48
2022-12-18T21:31:03.983Z,20.25
2022-12-18T21:36:37.521Z,22.17
2022-12-18T22:23:41.895Z,19.00
2022-12-18T22:36:15.317Z,24.27
2022-12-18T22:40:13.042Z,25.17
2022-12-18T22:45:59.336Z,24.75
2022-12-18T22:48:54.750Z,21.52
2022-12-18T23:07:23.319Z,23.08
2022-12-18T23:13:31.127Z,21.88
2022-12-18T23:20:01.826Z,22.67
2022-12-18T23:23:14.338Z,22.67
2022-12-18T23:25:50.848Z,26.77
2022-12-18T23:28:20.278Z,20.50
2022-12-18T23:34:05.193Z,21.42
2022-12-18T23:36:46.278Z,27.55
2022-12-18T23:44:44.221Z,20.55
2022-12-18T23:51:35.614Z,25.92
2022-12-18T23:59:57.387Z,24.58
